sensor_id;sensor_type;location;lat;lon;timestamp;pressure;altitude;pressure_sealevel;temperature;humidity
61488;BME280;47351;53.326;-6.298;2023-03-23T00:01:58;98497.85;;;6.67;76.78
61488;BME280;47351;53.326;-6.298;2023-03-23T00:05:08;98496.93;;;6.72;76.65
61488;BME280;47351;53.326;-6.298;2023-03-23T00:08:18;98501.09;;;6.79;76.53
61488;BME280;47351;53.326;-6.298;2023-03-23T00:11:30;98502.02;;;6.86;76.40
61488;BME280;47351;53.326;-6.298;2023-03-23T00:14:40;98498.98;;;6.92;76.26
61488;BME280;47351;53.326;-6.298;2023-03-23T00:17:51;98500.52;;;6.97;76.03
61488;BME280;47351;53.326;-6.298;2023-03-23T00:21:00;98504.11;;;7.01;75.94
61488;BME280;47351;53.326;-6.298;2023-03-23T00:24:13;98509.01;;;7.07;76.08
61488;BME280;47351;53.326;-6.298;2023-03-23T00:27:26;98501.14;;;7.12;76.11
61488;BME280;47351;53.326;-6.298;2023-03-23T00:30:48;98492.77;;;7.13;76.09
61488;BME280;47351;53.326;-6.298;2023-03-23T00:33:59;98497.51;;;7.12;76.00
61488;BME280;47351;53.326;-6.298;2023-03-23T00:37:11;98497.95;;;7.12;76.04
61488;BME280;47351;53.326;-6.298;2023-03-23T00:40:25;98486.66;;;7.13;76.04
61488;BME280;47351;53.326;-6.298;2023-03-23T00:43:27;98488.82;;;7.15;76.11
61488;BME280;47351;53.326;-6.298;2023-03-23T00:46:38;98493.46;;;7.18;76.06
61488;BME280;47351;53.326;-6.298;2023-03-23T00:49:52;98499.42;;;7.20;76.05
61488;BME280;47351;53.326;-6.298;2023-03-23T00:53:00;98501.85;;;7.22;76.16
61488;BME280;47351;53.326;-6.298;2023-03-23T00:56:12;98500.49;;;7.26;76.13
61488;BME280;47351;53.326;-6.298;2023-03-23T00:59:22;98499.99;;;7.30;76.11
61488;BME280;47351;53.326;-6.298;2023-03-23T01:02:22;98501.00;;;7.33;76.05
61488;BME280;47351;53.326;-6.298;2023-03-23T01:05:35;98511.55;;;7.35;76.45
61488;BME280;47351;53.326;-6.298;2023-03-23T01:08:40;98508.98;;;7.36;76.53
61488;BME280;47351;53.326;-6.298;2023-03-23T01:11:53;98509.84;;;7.36;76.60
61488;BME280;47351;53.326;-6.298;2023-03-23T01:15:04;98511.73;;;7.38;76.66
61488;BME280;47351;53.326;-6.298;2023-03-23T01:18:14;98513.35;;;7.39;76.94
61488;BME280;47351;53.326;-6.298;2023-03-23T01:21:17;98513.75;;;7.39;77.19
61488;BME280;47351;53.326;-6.298;2023-03-23T01:24:27;98504.86;;;7.37;77.55
61488;BME280;47351;53.326;-6.298;2023-03-23T01:27:28;98510.05;;;7.36;78.00
61488;BME280;47351;53.326;-6.298;2023-03-23T01:30:31;98513.09;;;7.34;78.42
61488;BME280;47351;53.326;-6.298;2023-03-23T01:33:41;98519.88;;;7.32;78.56
61488;BME280;47351;53.326;-6.298;2023-03-23T01:36:51;98521.56;;;7.29;78.78
61488;BME280;47351;53.326;-6.298;2023-03-23T01:40:00;98525.92;;;7.21;79.00
61488;BME280;47351;53.326;-6.298;2023-03-23T01:43:09;98532.11;;;7.11;79.44
61488;BME280;47351;53.326;-6.298;2023-03-23T01:46:22;98534.20;;;7.00;79.86
61488;BME280;47351;53.326;-6.298;2023-03-23T01:49:32;98531.61;;;6.93;80.15
61488;BME280;47351;53.326;-6.298;2023-03-23T01:52:31;98523.59;;;6.85;80.42
61488;BME280;47351;53.326;-6.298;2023-03-23T01:55:43;98517.14;;;6.76;80.77
61488;BME280;47351;53.326;-6.298;2023-03-23T01:58:47;98512.48;;;6.66;81.06
61488;BME280;47351;53.326;-6.298;2023-03-23T02:01:57;98506.30;;;6.58;81.41
61488;BME280;47351;53.326;-6.298;2023-03-23T02:05:08;98508.11;;;6.52;81.83
61488;BME280;47351;53.326;-6.298;2023-03-23T02:08:19;98506.66;;;6.49;82.30
61488;BME280;47351;53.326;-6.298;2023-03-23T02:11:29;98502.99;;;6.49;83.07
61488;BME280;47351;53.326;-6.298;2023-03-23T02:14:39;98499.77;;;6.48;83.50
61488;BME280;47351;53.326;-6.298;2023-03-23T02:17:50;98495.45;;;6.47;83.88
61488;BME280;47351;53.326;-6.298;2023-03-23T02:21:16;98479.91;;;6.46;84.38
61488;BME280;47351;53.326;-6.298;2023-03-23T02:24:36;98470.60;;;6.44;84.41
61488;BME280;47351;53.326;-6.298;2023-03-23T02:28:01;98469.66;;;6.42;84.82
61488;BME280;47351;53.326;-6.298;2023-03-23T02:31:19;98470.56;;;6.42;85.01
61488;BME280;47351;53.326;-6.298;2023-03-23T02:34:24;98475.50;;;6.43;85.37
61488;BME280;47351;53.326;-6.298;2023-03-23T02:37:38;98472.69;;;6.47;85.49
61488;BME280;47351;53.326;-6.298;2023-03-23T02:40:48;98464.20;;;6.52;85.60
61488;BME280;47351;53.326;-6.298;2023-03-23T02:43:58;98465.01;;;6.56;85.82
61488;BME280;47351;53.326;-6.298;2023-03-23T02:47:11;98460.81;;;6.58;85.97
61488;BME280;47351;53.326;-6.298;2023-03-23T02:50:25;98454.66;;;6.60;86.07
61488;BME280;47351;53.326;-6.298;2023-03-23T02:53:37;98453.55;;;6.64;86.24
61488;BME280;47351;53.326;-6.298;2023-03-23T02:56:48;98447.97;;;6.68;86.26
61488;BME280;47351;53.326;-6.298;2023-03-23T02:59:56;98448.00;;;6.72;86.35
61488;BME280;47351;53.326;-6.298;2023-03-23T03:03:07;98452.26;;;6.77;86.41
61488;BME280;47351;53.326;-6.298;2023-03-23T03:06:22;98451.99;;;6.82;86.52
61488;BME280;47351;53.326;-6.298;2023-03-23T03:09:36;98455.63;;;6.86;86.57
61488;BME280;47351;53.326;-6.298;2023-03-23T03:12:44;98456.17;;;6.88;86.65
61488;BME280;47351;53.326;-6.298;2023-03-23T03:15:49;98457.88;;;6.90;87.04
61488;BME280;47351;53.326;-6.298;2023-03-23T03:19:03;98452.55;;;6.93;87.33
61488;BME280;47351;53.326;-6.298;2023-03-23T03:22:15;98451.45;;;6.95;87.40
61488;BME280;47351;53.326;-6.298;2023-03-23T03:25:26;98450.96;;;6.96;87.50
61488;BME280;47351;53.326;-6.298;2023-03-23T03:28:37;98439.11;;;6.97;87.70
61488;BME280;47351;53.326;-6.298;2023-03-23T03:31:41;98429.05;;;6.97;87.71
61488;BME280;47351;53.326;-6.298;2023-03-23T03:34:53;98429.74;;;6.97;87.79
61488;BME280;47351;53.326;-6.298;2023-03-23T03:37:54;98421.84;;;6.95;87.94
61488;BME280;47351;53.326;-6.298;2023-03-23T03:41:04;98414.70;;;6.94;87.82
61488;BME280;47351;53.326;-6.298;2023-03-23T03:44:14;98405.80;;;6.92;87.86
61488;BME280;47351;53.326;-6.298;2023-03-23T03:47:24;98394.27;;;6.92;87.95
61488;BME280;47351;53.326;-6.298;2023-03-23T03:50:34;98375.92;;;6.92;87.89
61488;BME280;47351;53.326;-6.298;2023-03-23T03:53:44;98372.96;;;6.88;87.85
61488;BME280;47351;53.326;-6.298;2023-03-23T03:56:53;98359.98;;;6.82;87.61
61488;BME280;47351;53.326;-6.298;2023-03-23T04:00:04;98360.79;;;6.72;87.54
61488;BME280;47351;53.326;-6.298;2023-03-23T04:03:01;98355.84;;;6.64;87.55
61488;BME280;47351;53.326;-6.298;2023-03-23T04:06:20;98352.63;;;6.57;87.58
61488;BME280;47351;53.326;-6.298;2023-03-23T04:09:30;98342.93;;;6.51;87.67
61488;BME280;47351;53.326;-6.298;2023-03-23T04:12:39;98345.39;;;6.48;87.78
61488;BME280;47351;53.326;-6.298;2023-03-23T04:15:48;98351.84;;;6.46;87.98
61488;BME280;47351;53.326;-6.298;2023-03-23T04:18:47;98350.84;;;6.45;88.13
61488;BME280;47351;53.326;-6.298;2023-03-23T04:21:57;98345.32;;;6.46;88.18
61488;BME280;47351;53.326;-6.298;2023-03-23T04:25:07;98343.38;;;6.47;88.26
61488;BME280;47351;53.326;-6.298;2023-03-23T04:28:19;98347.73;;;6.49;88.29
61488;BME280;47351;53.326;-6.298;2023-03-23T04:31:43;98352.48;;;6.53;88.48
61488;BME280;47351;53.326;-6.298;2023-03-23T04:34:56;98349.91;;;6.55;88.58
61488;BME280;47351;53.326;-6.298;2023-03-23T04:38:07;98350.10;;;6.56;88.50
61488;BME280;47351;53.326;-6.298;2023-03-23T04:41:17;98349.57;;;6.57;88.67
61488;BME280;47351;53.326;-6.298;2023-03-23T04:44:40;98347.51;;;6.61;88.79
61488;BME280;47351;53.326;-6.298;2023-03-23T04:47:51;98349.27;;;6.66;88.76
61488;BME280;47351;53.326;-6.298;2023-03-23T04:51:12;98350.53;;;6.68;88.79
61488;BME280;47351;53.326;-6.298;2023-03-23T04:54:22;98353.89;;;6.69;88.66
61488;BME280;47351;53.326;-6.298;2023-03-23T04:57:31;98349.08;;;6.71;88.65
61488;BME280;47351;53.326;-6.298;2023-03-23T05:00:40;98348.40;;;6.74;88.59
61488;BME280;47351;53.326;-6.298;2023-03-23T05:03:51;98359.10;;;6.76;88.59
61488;BME280;47351;53.326;-6.298;2023-03-23T05:07:02;98352.54;;;6.78;88.38
61488;BME280;47351;53.326;-6.298;2023-03-23T05:10:12;98356.98;;;6.76;88.15
61488;BME280;47351;53.326;-6.298;2023-03-23T05:13:22;98356.14;;;6.74;88.22
61488;BME280;47351;53.326;-6.298;2023-03-23T05:16:32;98353.71;;;6.72;88.21
61488;BME280;47351;53.326;-6.298;2023-03-23T05:19:38;98358.05;;;6.72;88.26
61488;BME280;47351;53.326;-6.298;2023-03-23T05:22:49;98361.48;;;6.71;88.32
61488;BME280;47351;53.326;-6.298;2023-03-23T05:26:02;98356.86;;;6.71;88.32
61488;BME280;47351;53.326;-6.298;2023-03-23T05:29:12;98351.27;;;6.69;88.19
61488;BME280;47351;53.326;-6.298;2023-03-23T05:32:18;98357.33;;;6.69;88.34
61488;BME280;47351;53.326;-6.298;2023-03-23T05:35:21;98359.70;;;6.70;88.52
61488;BME280;47351;53.326;-6.298;2023-03-23T05:38:31;98359.70;;;6.70;88.58
61488;BME280;47351;53.326;-6.298;2023-03-23T05:41:41;98361.62;;;6.70;88.66
61488;BME280;47351;53.326;-6.298;2023-03-23T05:44:52;98358.31;;;6.71;88.66
61488;BME280;47351;53.326;-6.298;2023-03-23T05:47:55;98357.89;;;6.73;88.73
61488;BME280;47351;53.326;-6.298;2023-03-23T05:51:05;98360.19;;;6.74;88.76
61488;BME280;47351;53.326;-6.298;2023-03-23T05:54:15;98368.10;;;6.75;88.87
61488;BME280;47351;53.326;-6.298;2023-03-23T05:57:26;98365.84;;;6.75;88.83
61488;BME280;47351;53.326;-6.298;2023-03-23T06:00:42;98362.41;;;6.75;88.74
61488;BME280;47351;53.326;-6.298;2023-03-23T06:03:52;98358.09;;;6.77;88.72
61488;BME280;47351;53.326;-6.298;2023-03-23T06:07:07;98359.38;;;6.80;88.46
61488;BME280;47351;53.326;-6.298;2023-03-23T06:10:20;98353.17;;;6.83;88.10
61488;BME280;47351;53.326;-6.298;2023-03-23T06:13:30;98346.06;;;6.83;87.77
61488;BME280;47351;53.326;-6.298;2023-03-23T06:16:40;98343.24;;;6.82;87.51
61488;BME280;47351;53.326;-6.298;2023-03-23T06:19:50;98342.38;;;6.82;87.34
61488;BME280;47351;53.326;-6.298;2023-03-23T06:23:00;98344.19;;;6.83;87.39
61488;BME280;47351;53.326;-6.298;2023-03-23T06:26:11;98336.77;;;6.85;87.48
61488;BME280;47351;53.326;-6.298;2023-03-23T06:29:22;98334.06;;;6.86;87.49
61488;BME280;47351;53.326;-6.298;2023-03-23T06:32:27;98338.25;;;6.88;87.57
61488;BME280;47351;53.326;-6.298;2023-03-23T06:35:30;98340.77;;;6.91;87.66
61488;BME280;47351;53.326;-6.298;2023-03-23T06:38:45;98334.16;;;6.94;87.71
61488;BME280;47351;53.326;-6.298;2023-03-23T06:41:53;98338.64;;;6.95;87.68
61488;BME280;47351;53.326;-6.298;2023-03-23T06:45:04;98342.85;;;6.95;87.60
61488;BME280;47351;53.326;-6.298;2023-03-23T06:48:14;98343.40;;;6.97;87.48
61488;BME280;47351;53.326;-6.298;2023-03-23T06:51:23;98346.04;;;7.00;87.26
61488;BME280;47351;53.326;-6.298;2023-03-23T06:54:33;98352.34;;;7.02;86.97
61488;BME280;47351;53.326;-6.298;2023-03-23T06:57:32;98358.27;;;7.05;86.84
61488;BME280;47351;53.326;-6.298;2023-03-23T07:00:33;98357.45;;;7.09;86.56
61488;BME280;47351;53.326;-6.298;2023-03-23T07:03:42;98359.14;;;7.11;86.36
61488;BME280;47351;53.326;-6.298;2023-03-23T07:06:48;98358.21;;;7.13;86.26
61488;BME280;47351;53.326;-6.298;2023-03-23T07:09:54;98363.20;;;7.17;86.31
61488;BME280;47351;53.326;-6.298;2023-03-23T07:12:51;98369.32;;;7.26;86.36
61488;BME280;47351;53.326;-6.298;2023-03-23T07:16:04;98368.35;;;7.88;86.22
61488;BME280;47351;53.326;-6.298;2023-03-23T07:19:01;98366.98;;;8.58;85.12
61488;BME280;47351;53.326;-6.298;2023-03-23T07:22:16;98370.64;;;9.24;83.45
61488;BME280;47351;53.326;-6.298;2023-03-23T07:25:31;98366.56;;;9.23;81.15
61488;BME280;47351;53.326;-6.298;2023-03-23T07:28:23;98376.30;;;9.25;80.81
61488;BME280;47351;53.326;-6.298;2023-03-23T07:31:36;98376.52;;;9.50;80.54
61488;BME280;47351;53.326;-6.298;2023-03-23T07:38:02;98372.37;;;11.13;77.15
61488;BME280;47351;53.326;-6.298;2023-03-23T07:40:55;98373.08;;;11.45;74.94
61488;BME280;47351;53.326;-6.298;2023-03-23T07:43:50;98369.77;;;11.90;73.12
61488;BME280;47351;53.326;-6.298;2023-03-23T07:47:04;98373.30;;;11.37;72.44
61488;BME280;47351;53.326;-6.298;2023-03-23T07:50:14;98379.48;;;10.72;73.05
61488;BME280;47351;53.326;-6.298;2023-03-23T07:53:24;98379.70;;;10.31;74.33
61488;BME280;47351;53.326;-6.298;2023-03-23T07:56:30;98381.21;;;11.41;74.52
61488;BME280;47351;53.326;-6.298;2023-03-23T07:59:33;98383.45;;;12.74;72.21
61488;BME280;47351;53.326;-6.298;2023-03-23T08:02:27;98382.22;;;12.91;70.39
61488;BME280;47351;53.326;-6.298;2023-03-23T08:05:38;98375.74;;;13.91;68.79
61488;BME280;47351;53.326;-6.298;2023-03-23T08:08:48;98371.18;;;14.68;65.25
61488;BME280;47351;53.326;-6.298;2023-03-23T08:11:59;98380.27;;;14.29;63.83
61488;BME280;47351;53.326;-6.298;2023-03-23T08:15:18;98386.48;;;13.06;64.41
61488;BME280;47351;53.326;-6.298;2023-03-23T08:18:29;98389.36;;;12.04;65.56
61488;BME280;47351;53.326;-6.298;2023-03-23T08:21:55;98389.69;;;11.16;67.26
61488;BME280;47351;53.326;-6.298;2023-03-23T08:25:14;98385.01;;;10.71;68.97
61488;BME280;47351;53.326;-6.298;2023-03-23T08:28:31;98383.25;;;11.67;68.63
61488;BME280;47351;53.326;-6.298;2023-03-23T08:31:21;98376.11;;;13.74;65.94
61488;BME280;47351;53.326;-6.298;2023-03-23T08:34:13;98371.34;;;15.04;63.89
61488;BME280;47351;53.326;-6.298;2023-03-23T08:37:03;98368.34;;;15.93;60.32
61488;BME280;47351;53.326;-6.298;2023-03-23T08:40:13;98368.46;;;16.86;55.08
61488;BME280;47351;53.326;-6.298;2023-03-23T08:43:20;98351.91;;;17.22;54.26
61488;BME280;47351;53.326;-6.298;2023-03-23T08:46:32;98347.66;;;16.92;54.78
61488;BME280;47351;53.326;-6.298;2023-03-23T08:49:48;98345.97;;;16.36;55.13
61488;BME280;47351;53.326;-6.298;2023-03-23T08:52:46;98357.02;;;15.42;55.38
61488;BME280;47351;53.326;-6.298;2023-03-23T08:56:07;98357.73;;;15.24;56.72
61488;BME280;47351;53.326;-6.298;2023-03-23T08:59:26;98356.78;;;16.88;54.12
61488;BME280;47351;53.326;-6.298;2023-03-23T09:02:38;98348.53;;;18.64;50.52
61488;BME280;47351;53.326;-6.298;2023-03-23T09:05:42;98358.79;;;19.96;48.20
61488;BME280;47351;53.326;-6.298;2023-03-23T09:08:59;98353.88;;;21.15;45.03
61488;BME280;47351;53.326;-6.298;2023-03-23T09:11:54;98349.36;;;21.95;43.32
61488;BME280;47351;53.326;-6.298;2023-03-23T09:14:43;98358.44;;;22.73;42.05
61488;BME280;47351;53.326;-6.298;2023-03-23T09:17:33;98352.54;;;23.25;41.10
61488;BME280;47351;53.326;-6.298;2023-03-23T09:20:23;98356.25;;;24.01;41.23
61488;BME280;47351;53.326;-6.298;2023-03-23T09:23:13;98364.77;;;24.70;38.81
61488;BME280;47351;53.326;-6.298;2023-03-23T09:26:06;98360.65;;;25.35;39.00
61488;BME280;47351;53.326;-6.298;2023-03-23T09:28:55;98360.85;;;25.83;37.15
61488;BME280;47351;53.326;-6.298;2023-03-23T09:31:45;98362.20;;;25.98;35.90
61488;BME280;47351;53.326;-6.298;2023-03-23T09:34:37;98364.52;;;25.88;35.95
61488;BME280;47351;53.326;-6.298;2023-03-23T09:37:27;98370.05;;;24.07;37.23
61488;BME280;47351;53.326;-6.298;2023-03-23T09:40:23;98377.49;;;22.34;37.85
61488;BME280;47351;53.326;-6.298;2023-03-23T09:43:25;98362.70;;;22.80;37.53
61488;BME280;47351;53.326;-6.298;2023-03-23T09:46:22;98356.63;;;24.33;37.43
61488;BME280;47351;53.326;-6.298;2023-03-23T09:49:13;98358.70;;;25.69;34.76
61488;BME280;47351;53.326;-6.298;2023-03-23T09:52:05;98356.98;;;26.35;32.18
61488;BME280;47351;53.326;-6.298;2023-03-23T09:54:59;98362.84;;;26.81;31.77
61488;BME280;47351;53.326;-6.298;2023-03-23T09:57:49;98358.17;;;27.44;31.62
61488;BME280;47351;53.326;-6.298;2023-03-23T10:00:41;98356.59;;;27.73;30.58
61488;BME280;47351;53.326;-6.298;2023-03-23T10:03:33;98357.64;;;27.66;30.17
61488;BME280;47351;53.326;-6.298;2023-03-23T10:06:25;98354.65;;;27.71;29.80
61488;BME280;47351;53.326;-6.298;2023-03-23T10:09:15;98357.67;;;27.93;29.40
61488;BME280;47351;53.326;-6.298;2023-03-23T10:12:07;98354.05;;;28.36;29.49
61488;BME280;47351;53.326;-6.298;2023-03-23T10:15:14;98353.98;;;28.74;27.89
61488;BME280;47351;53.326;-6.298;2023-03-23T10:18:04;98354.44;;;28.88;27.70
61488;BME280;47351;53.326;-6.298;2023-03-23T10:20:57;98355.20;;;28.94;27.63
61488;BME280;47351;53.326;-6.298;2023-03-23T10:23:55;98363.55;;;28.70;26.51
61488;BME280;47351;53.326;-6.298;2023-03-23T10:26:48;98364.21;;;28.64;26.63
61488;BME280;47351;53.326;-6.298;2023-03-23T10:29:41;98362.13;;;28.78;26.79
61488;BME280;47351;53.326;-6.298;2023-03-23T10:32:39;98362.36;;;29.04;26.33
61488;BME280;47351;53.326;-6.298;2023-03-23T10:35:30;98354.25;;;29.13;26.37
61488;BME280;47351;53.326;-6.298;2023-03-23T10:38:22;98361.01;;;28.85;26.14
61488;BME280;47351;53.326;-6.298;2023-03-23T10:41:14;98359.45;;;29.13;25.47
61488;BME280;47351;53.326;-6.298;2023-03-23T10:44:08;98361.77;;;29.34;25.78
61488;BME280;47351;53.326;-6.298;2023-03-23T10:47:00;98366.77;;;29.78;25.87
61488;BME280;47351;53.326;-6.298;2023-03-23T10:49:51;98368.62;;;30.05;25.44
61488;BME280;47351;53.326;-6.298;2023-03-23T10:52:43;98371.02;;;30.45;25.39
61488;BME280;47351;53.326;-6.298;2023-03-23T10:55:37;98370.16;;;31.00;25.11
61488;BME280;47351;53.326;-6.298;2023-03-23T10:58:27;98372.30;;;32.03;25.43
61488;BME280;47351;53.326;-6.298;2023-03-23T11:01:19;98368.01;;;32.86;24.38
61488;BME280;47351;53.326;-6.298;2023-03-23T11:04:12;98372.00;;;31.94;23.87
61488;BME280;47351;53.326;-6.298;2023-03-23T11:07:02;98376.80;;;31.54;24.24
61488;BME280;47351;53.326;-6.298;2023-03-23T11:09:53;98383.54;;;31.35;23.72
61488;BME280;47351;53.326;-6.298;2023-03-23T11:12:45;98374.78;;;31.49;24.56
61488;BME280;47351;53.326;-6.298;2023-03-23T11:15:36;98368.91;;;31.87;24.33
61488;BME280;47351;53.326;-6.298;2023-03-23T11:18:34;98364.23;;;32.07;22.72
61488;BME280;47351;53.326;-6.298;2023-03-23T11:21:24;98369.02;;;31.22;23.60
61488;BME280;47351;53.326;-6.298;2023-03-23T11:24:14;98368.27;;;29.79;24.39
61488;BME280;47351;53.326;-6.298;2023-03-23T11:27:04;98371.52;;;29.08;25.27
61488;BME280;47351;53.326;-6.298;2023-03-23T11:29:56;98368.98;;;29.83;25.39
61488;BME280;47351;53.326;-6.298;2023-03-23T11:32:51;98367.04;;;30.99;23.93
61488;BME280;47351;53.326;-6.298;2023-03-23T11:35:45;98378.91;;;31.33;22.83
61488;BME280;47351;53.326;-6.298;2023-03-23T11:38:35;98381.69;;;31.57;22.43
61488;BME280;47351;53.326;-6.298;2023-03-23T11:41:28;98370.27;;;31.78;22.60
61488;BME280;47351;53.326;-6.298;2023-03-23T11:44:21;98368.52;;;31.26;22.19
61488;BME280;47351;53.326;-6.298;2023-03-23T11:47:15;98364.42;;;30.98;23.29
61488;BME280;47351;53.326;-6.298;2023-03-23T11:50:10;98362.91;;;30.19;23.61
61488;BME280;47351;53.326;-6.298;2023-03-23T11:53:02;98359.05;;;29.05;24.66
61488;BME280;47351;53.326;-6.298;2023-03-23T11:56:00;98353.67;;;27.90;25.76
61488;BME280;47351;53.326;-6.298;2023-03-23T11:58:50;98364.74;;;26.42;26.84
61488;BME280;47351;53.326;-6.298;2023-03-23T12:01:43;98364.06;;;24.64;28.11
61488;BME280;47351;53.326;-6.298;2023-03-23T12:04:37;98363.63;;;23.27;29.80
61488;BME280;47351;53.326;-6.298;2023-03-23T12:07:35;98361.68;;;22.35;31.40
61488;BME280;47351;53.326;-6.298;2023-03-23T12:10:30;98358.07;;;22.73;32.16
61488;BME280;47351;53.326;-6.298;2023-03-23T12:13:30;98348.48;;;23.21;31.85
61488;BME280;47351;53.326;-6.298;2023-03-23T12:16:28;98333.98;;;23.45;31.77
61488;BME280;47351;53.326;-6.298;2023-03-23T12:19:21;98327.36;;;25.25;30.84
61488;BME280;47351;53.326;-6.298;2023-03-23T12:22:17;98326.13;;;27.29;28.24
61488;BME280;47351;53.326;-6.298;2023-03-23T12:25:15;98318.66;;;28.97;26.52
61488;BME280;47351;53.326;-6.298;2023-03-23T12:28:10;98315.66;;;30.13;24.73
61488;BME280;47351;53.326;-6.298;2023-03-23T12:31:05;98325.90;;;30.63;24.14
61488;BME280;47351;53.326;-6.298;2023-03-23T12:34:02;98317.84;;;30.08;24.90
61488;BME280;47351;53.326;-6.298;2023-03-23T12:37:02;98318.15;;;29.62;25.20
61488;BME280;47351;53.326;-6.298;2023-03-23T12:43:01;98299.89;;;31.48;23.48
61488;BME280;47351;53.326;-6.298;2023-03-23T12:45:58;98294.57;;;32.16;22.66
61488;BME280;47351;53.326;-6.298;2023-03-23T12:48:54;98292.11;;;32.13;22.96
61488;BME280;47351;53.326;-6.298;2023-03-23T12:51:47;98298.89;;;30.64;23.35
61488;BME280;47351;53.326;-6.298;2023-03-23T12:54:40;98297.94;;;29.05;24.71
61488;BME280;47351;53.326;-6.298;2023-03-23T12:57:37;98297.85;;;28.38;25.31
61488;BME280;47351;53.326;-6.298;2023-03-23T13:00:29;98286.36;;;28.69;25.26
61488;BME280;47351;53.326;-6.298;2023-03-23T13:03:22;98281.88;;;29.73;24.82
61488;BME280;47351;53.326;-6.298;2023-03-23T13:06:15;98282.11;;;30.63;23.58
61488;BME280;47351;53.326;-6.298;2023-03-23T13:09:09;98275.48;;;30.71;23.67
61488;BME280;47351;53.326;-6.298;2023-03-23T13:12:01;98268.02;;;31.40;23.87
61488;BME280;47351;53.326;-6.298;2023-03-23T13:14:55;98267.78;;;31.11;24.07
61488;BME280;47351;53.326;-6.298;2023-03-23T13:17:46;98276.67;;;28.73;24.99
61488;BME280;47351;53.326;-6.298;2023-03-23T13:23:44;98288.84;;;25.36;28.02
61488;BME280;47351;53.326;-6.298;2023-03-23T13:26:38;98282.86;;;24.62;28.33
61488;BME280;47351;53.326;-6.298;2023-03-23T13:29:28;98275.11;;;24.95;28.38
61488;BME280;47351;53.326;-6.298;2023-03-23T13:32:18;98272.64;;;25.84;27.66
61488;BME280;47351;53.326;-6.298;2023-03-23T13:35:12;98266.98;;;25.95;27.61
61488;BME280;47351;53.326;-6.298;2023-03-23T13:38:10;98253.16;;;26.33;27.07
61488;BME280;47351;53.326;-6.298;2023-03-23T13:41:08;98256.16;;;26.74;26.30
61488;BME280;47351;53.326;-6.298;2023-03-23T13:44:14;98253.77;;;27.29;25.48
61488;BME280;47351;53.326;-6.298;2023-03-23T13:47:08;98253.27;;;26.84;26.07
61488;BME280;47351;53.326;-6.298;2023-03-23T13:49:59;98256.70;;;25.23;27.44
61488;BME280;47351;53.326;-6.298;2023-03-23T13:52:51;98251.46;;;23.84;29.22
61488;BME280;47351;53.326;-6.298;2023-03-23T13:55:47;98244.14;;;24.58;28.97
61488;BME280;47351;53.326;-6.298;2023-03-23T13:58:45;98249.28;;;24.04;29.27
61488;BME280;47351;53.326;-6.298;2023-03-23T14:01:36;98253.34;;;23.74;29.84
61488;BME280;47351;53.326;-6.298;2023-03-23T14:04:31;98243.23;;;23.79;29.69
61488;BME280;47351;53.326;-6.298;2023-03-23T14:07:20;98250.52;;;22.66;30.80
61488;BME280;47351;53.326;-6.298;2023-03-23T14:10:15;98246.30;;;23.44;30.27
61488;BME280;47351;53.326;-6.298;2023-03-23T14:13:09;98238.29;;;24.43;28.65
61488;BME280;47351;53.326;-6.298;2023-03-23T14:16:01;98234.63;;;24.55;28.39
61488;BME280;47351;53.326;-6.298;2023-03-23T14:18:59;98229.36;;;24.60;28.38
61488;BME280;47351;53.326;-6.298;2023-03-23T14:21:53;98212.14;;;24.75;27.98
61488;BME280;47351;53.326;-6.298;2023-03-23T14:24:43;98215.63;;;24.94;27.77
61488;BME280;47351;53.326;-6.298;2023-03-23T14:27:33;98210.05;;;25.09;28.25
61488;BME280;47351;53.326;-6.298;2023-03-23T14:30:24;98200.14;;;25.05;27.62
61488;BME280;47351;53.326;-6.298;2023-03-23T14:33:14;98194.09;;;24.74;28.07
61488;BME280;47351;53.326;-6.298;2023-03-23T14:36:05;98207.30;;;24.57;28.35
61488;BME280;47351;53.326;-6.298;2023-03-23T14:39:00;98213.07;;;23.61;29.12
61488;BME280;47351;53.326;-6.298;2023-03-23T14:41:50;98208.07;;;22.65;30.64
61488;BME280;47351;53.326;-6.298;2023-03-23T14:44:41;98204.98;;;21.73;32.00
61488;BME280;47351;53.326;-6.298;2023-03-23T14:47:32;98207.61;;;21.09;32.93
61488;BME280;47351;53.326;-6.298;2023-03-23T14:50:24;98215.51;;;20.30;34.06
61488;BME280;47351;53.326;-6.298;2023-03-23T14:53:15;98203.44;;;19.64;35.23
61488;BME280;47351;53.326;-6.298;2023-03-23T14:56:10;98196.04;;;19.04;36.26
61488;BME280;47351;53.326;-6.298;2023-03-23T14:59:02;98199.55;;;18.59;37.05
61488;BME280;47351;53.326;-6.298;2023-03-23T15:01:52;98197.54;;;18.46;37.62
61488;BME280;47351;53.326;-6.298;2023-03-23T15:04:41;98188.45;;;18.01;38.38
61488;BME280;47351;53.326;-6.298;2023-03-23T15:07:33;98191.27;;;17.39;39.46
61488;BME280;47351;53.326;-6.298;2023-03-23T15:10:23;98186.63;;;16.89;40.11
61488;BME280;47351;53.326;-6.298;2023-03-23T15:13:16;98180.82;;;16.49;40.99
61488;BME280;47351;53.326;-6.298;2023-03-23T15:16:15;98179.35;;;16.28;41.77
61488;BME280;47351;53.326;-6.298;2023-03-23T15:19:10;98175.14;;;16.63;41.55
61488;BME280;47351;53.326;-6.298;2023-03-23T15:22:06;98175.16;;;17.05;40.86
61488;BME280;47351;53.326;-6.298;2023-03-23T15:25:03;98168.61;;;17.03;40.65
61488;BME280;47351;53.326;-6.298;2023-03-23T15:27:54;98174.60;;;16.55;41.25
61488;BME280;47351;53.326;-6.298;2023-03-23T15:30:49;98172.27;;;16.14;41.81
61488;BME280;47351;53.326;-6.298;2023-03-23T15:33:39;98171.70;;;15.79;42.30
61488;BME280;47351;53.326;-6.298;2023-03-23T15:36:33;98162.03;;;15.49;42.98
61488;BME280;47351;53.326;-6.298;2023-03-23T15:39:25;98194.56;;;15.33;43.80
61488;BME280;47351;53.326;-6.298;2023-03-23T15:42:23;98192.23;;;15.32;45.58
61488;BME280;47351;53.326;-6.298;2023-03-23T15:45:32;98187.40;;;15.20;46.64
61488;BME280;47351;53.326;-6.298;2023-03-23T15:48:47;98183.91;;;15.01;47.47
61488;BME280;47351;53.326;-6.298;2023-03-23T15:51:46;98178.41;;;14.97;48.83
61488;BME280;47351;53.326;-6.298;2023-03-23T15:54:48;98173.77;;;14.87;50.00
61488;BME280;47351;53.326;-6.298;2023-03-23T15:57:47;98174.61;;;14.72;50.50
61488;BME280;47351;53.326;-6.298;2023-03-23T16:00:48;98170.42;;;14.62;51.38
61488;BME280;47351;53.326;-6.298;2023-03-23T16:03:44;98160.23;;;14.64;52.19
61488;BME280;47351;53.326;-6.298;2023-03-23T16:06:37;98156.70;;;14.63;52.55
61488;BME280;47351;53.326;-6.298;2023-03-23T16:09:48;98158.50;;;14.61;52.95